Time,TemperatureF,DewpointF,PressureIn,WindDirection,WindDirectionDegrees,WindSpeedMPH,WindSpeedGustMPH,Humidity,HourlyPrecipIn,Conditions,Clouds,dailyrainin,SolarRadiationWatts/m^2,SoftwareType,DateUTC
2013-02-18 00:00:00,39.5,34.2,30.36,NNW,340,0.0,0.0,81,0.00,CLR,,0.00,0.0,WeatherDisplay:10.37,2013-02-18 05:00:00,
2013-02-18 00:05:00,39.4,34.4,30.37,NNW,340,0.0,0.0,82,0.00,,,0.00,0.0,WeatherDisplay:10.37,2013-02-18 05:05:00,
2013-02-18 00:10:00,39.3,34.3,30.37,NNW,340,0.0,0.0,82,0.00,,,0.00,0.0,WeatherDisplay:10.37,2013-02-18 05:10:00,
2013-02-18 00:15:00,39.2,34.2,30.37,NNW,340,0.0,0.0,82,0.00,,,0.00,0.0,WeatherDisplay:10.37,2013-02-18 05:15:00,
2013-02-18 00:20:00,39.0,34.0,30.37,NNW,340,0.0,0.0,82,0.00,,,0.00,0.0,WeatherDisplay:10.37,2013-02-18 05:20:00,
2013-02-18 00:25:00,38.8,34.1,30.37,NNW,340,0.0,0.0,83,0.00,,,0.00,0.0,WeatherDisplay:10.37,2013-02-18 05:25:00,
2013-02-18 00:30:00,38.9,33.9,30.36,NNW,340,0.0,0.0,82,0.00,,,0.00,0.0,WeatherDisplay:10.37,2013-02-18 05:30:00,
2013-02-18 00:35:00,38.9,34.2,30.36,NNW,340,0.0,0.0,83,0.00,,,0.00,0.0,WeatherDisplay:10.37,2013-02-18 05:35:00,
2013-02-18 00:40:00,39.0,34.3,30.36,NNW,340,0.0,0.0,83,0.00,,,0.00,0.0,WeatherDisplay:10.37,2013-02-18 05:40:00,
2013-02-18 00:45:00,38.9,34.2,30.36,NNW,340,0.0,0.0,83,0.00,,,0.00,0.0,WeatherDisplay:10.37,2013-02-18 05:45:00,
2013-02-18 00:50:00,38.9,34.2,30.36,NNW,340,0.0,0.0,83,0.00,,,0.00,0.0,WeatherDisplay:10.37,2013-02-18 05:50:00,
2013-02-18 00:55:00,38.9,34.5,30.37,NNW,340,0.0,0.0,84,0.00,,,0.00,0.0,WeatherDisplay:10.37,2013-02-18 05:55:00,
2013-02-18 01:00:00,38.8,34.1,30.36,NNW,340,0.0,0.0,83,0.00,,,0.00,0.0,WeatherDisplay:10.37,2013-02-18 06:00:00,
2013-02-18 01:05:00,38.7,34.0,30.37,NNW,340,0.0,0.0,83,0.00,,,0.00,0.0,WeatherDisplay:10.37,2013-02-18 06:05:00,
2013-02-18 01:10:00,38.3,33.9,30.37,NNW,340,0.0,0.0,84,0.00,,,0.00,0.0,WeatherDisplay:10.37,2013-02-18 06:10:00,
2013-02-18 01:15:00,38.6,34.2,30.37,NNW,340,0.0,0.0,84,0.00,,,0.00,0.0,WeatherDisplay:10.37,2013-02-18 06:15:00,
2013-02-18 01:20:00,38.6,34.2,30.36,NNW,340,0.0,0.0,84,0.00,,,0.00,0.0,WeatherDisplay:10.37,2013-02-18 06:20:00,
2013-02-18 01:25:00,38.5,34.4,30.36,NNW,340,0.0,0.0,85,0.00,,,0.00,0.0,WeatherDisplay:10.37,2013-02-18 06:25:00,
2013-02-18 01:30:00,38.5,34.4,30.36,NNW,340,0.0,0.0,85,0.00,,,0.00,0.0,WeatherDisplay:10.37,2013-02-18 06:30:00,
2013-02-18 01:35:00,38.7,34.6,30.36,NNW,340,0.0,0.0,85,0.00,,,0.00,0.0,WeatherDisplay:10.37,2013-02-18 06:35:00,
2013-02-18 01:40:00,38.8,34.4,30.36,NNW,340,0.0,0.0,84,0.00,,,0.00,0.0,WeatherDisplay:10.37,2013-02-18 06:40:00,
2013-02-18 01:45:00,38.6,34.2,30.36,NNW,340,0.0,0.0,84,0.00,,,0.00,0.0,WeatherDisplay:10.37,2013-02-18 06:45:00,
2013-02-18 01:50:00,38.5,34.4,30.36,NNW,340,0.0,0.0,85,0.00,,,0.00,0.0,WeatherDisplay:10.37,2013-02-18 06:50:00,
2013-02-18 01:55:00,38.7,34.6,30.36,NNW,340,0.0,0.0,85,0.00,,,0.00,0.0,WeatherDisplay:10.37,2013-02-18 06:55:00,
2013-02-18 02:00:00,39.1,34.7,30.36,NNW,340,0.0,0.0,84,0.00,,,0.00,0.0,WeatherDisplay:10.37,2013-02-18 07:00:00,
2013-02-18 02:05:00,39.1,34.4,30.36,North,355,0.1,1.0,83,0.00,,,0.00,0.0,WeatherDisplay:10.37,2013-02-18 07:05:00,
2013-02-18 02:10:00,39.2,34.5,30.35,North,360,0.1,1.0,83,0.00,,,0.00,0.0,WeatherDisplay:10.37,2013-02-18 07:10:00,
2013-02-18 02:15:00,39.5,34.5,30.35,North,360,0.0,0.0,82,0.00,,,0.00,0.0,WeatherDisplay:10.37,2013-02-18 07:15:00,
2013-02-18 02:20:00,39.6,34.2,30.35,North,360,0.1,0.0,81,0.00,,,0.00,0.0,WeatherDisplay:10.37,2013-02-18 07:20:00,
2013-02-18 02:25:00,39.6,34.2,30.35,North,360,0.1,1.2,81,0.00,,,0.00,0.0,WeatherDisplay:10.37,2013-02-18 07:25:00,
2013-02-18 02:30:00,39.6,34.2,30.35,North,360,0.0,1.2,81,0.00,,,0.00,0.0,WeatherDisplay:10.37,2013-02-18 07:30:00,
2013-02-18 02:35:00,39.8,34.1,30.35,NE,43,0.3,1.2,80,0.00,,,0.00,0.0,WeatherDisplay:10.37,2013-02-18 07:35:00,
2013-02-18 02:40:00,39.8,34.1,30.35,NE,43,0.2,1.2,80,0.00,,,0.00,0.0,WeatherDisplay:10.37,2013-02-18 07:40:00,
2013-02-18 02:45:00,39.7,34.0,30.35,NE,43,0.0,0.0,80,0.00,,,0.00,0.0,WeatherDisplay:10.37,2013-02-18 07:45:00,
2013-02-18 02:50:00,39.7,34.0,30.36,NE,43,0.0,0.0,80,0.00,,,0.00,0.0,WeatherDisplay:10.37,2013-02-18 07:50:00,
2013-02-18 02:56:00,39.7,34.0,30.35,NE,43,0.0,0.0,80,0.00,,,0.00,0.0,WeatherDisplay:10.37,2013-02-18 07:56:00,
2013-02-18 03:01:00,39.2,33.9,30.35,NE,43,0.0,0.0,81,0.00,,,0.00,0.0,WeatherDisplay:10.37,2013-02-18 08:01:00,
2013-02-18 03:06:00,39.1,34.1,30.35,NE,43,0.0,0.0,82,0.00,,,0.00,0.0,WeatherDisplay:10.37,2013-02-18 08:06:00,
2013-02-18 03:11:00,39.0,34.0,30.35,NE,43,0.0,0.0,82,0.00,,,0.00,0.0,WeatherDisplay:10.37,2013-02-18 08:11:00,
2013-02-18 03:16:00,38.9,34.2,30.35,NE,43,0.4,2.3,83,0.00,,,0.00,0.0,WeatherDisplay:10.37,2013-02-18 08:16:00,
2013-02-18 03:21:00,39.0,34.0,30.35,NE,43,0.6,2.3,82,0.00,,,0.00,0.0,WeatherDisplay:10.37,2013-02-18 08:21:00,
2013-02-18 03:26:00,39.3,34.0,30.35,NE,41,0.7,3.5,81,0.00,,,0.00,0.0,WeatherDisplay:10.37,2013-02-18 08:26:00,
2013-02-18 03:31:00,39.8,34.1,30.35,NE,34,0.9,2.3,80,0.00,,,0.00,0.0,WeatherDisplay:10.37,2013-02-18 08:31:00,
2013-02-18 03:36:00,40.4,34.1,30.35,NE,40,1.0,3.5,78,0.00,,,0.00,0.0,WeatherDisplay:10.37,2013-02-18 08:36:00,
2013-02-18 03:41:00,40.7,34.0,30.35,NNE,19,1.2,1.2,77,0.00,,,0.00,0.0,WeatherDisplay:10.37,2013-02-18 08:41:00,
2013-02-18 03:46:00,40.7,34.0,30.35,NE,43,1.2,3.5,77,0.00,,,0.00,0.0,WeatherDisplay:10.37,2013-02-18 08:46:00,
2013-02-18 03:51:00,40.9,34.2,30.34,North,5,1.7,4.0,77,0.00,,,0.00,0.0,WeatherDisplay:10.37,2013-02-18 08:51:00,
2013-02-18 03:56:00,41.1,34.1,30.35,ENE,57,1.5,3.0,76,0.00,,,0.00,0.0,WeatherDisplay:10.37,2013-02-18 08:56:00,
2013-02-18 04:01:00,41.3,34.0,30.34,NNE,20,1.5,3.5,75,0.00,,,0.00,0.0,WeatherDisplay:10.37,2013-02-18 09:01:00,
2013-02-18 04:06:00,41.2,33.9,30.34,ENE,61,1.1,4.0,75,0.00,,,0.00,0.0,WeatherDisplay:10.37,2013-02-18 09:06:00,
2013-02-18 04:11:00,41.2,33.9,30.35,NE,46,0.7,1.2,75,0.00,,,0.00,0.0,WeatherDisplay:10.37,2013-02-18 09:11:00,
2013-02-18 04:16:00,41.1,33.8,30.35,NE,35,2.1,3.5,75,0.00,,,0.00,0.0,WeatherDisplay:10.37,2013-02-18 09:16:00,
2013-02-18 04:21:00,41.0,33.7,30.34,NE,55,1.0,3.0,75,0.00,,,0.00,0.0,WeatherDisplay:10.37,2013-02-18 09:21:00,
2013-02-18 04:26:00,40.8,33.8,30.34,NE,53,0.1,1.2,76,0.00,,,0.00,0.0,WeatherDisplay:10.37,2013-02-18 09:26:00,
2013-02-18 04:31:00,40.6,33.6,30.34,NE,53,0.0,1.2,76,0.00,,,0.00,0.0,WeatherDisplay:10.37,2013-02-18 09:31:00,
2013-02-18 04:36:00,40.5,33.5,30.34,NE,53,0.0,1.0,76,0.00,,,0.00,0.0,WeatherDisplay:10.37,2013-02-18 09:36:00,
2013-02-18 04:41:00,40.4,33.8,30.34,ENE,57,0.5,2.3,77,0.00,,,0.00,0.0,WeatherDisplay:10.37,2013-02-18 09:41:00,
2013-02-18 04:46:00,40.3,33.7,30.34,NE,53,0.0,0.0,77,0.00,,,0.00,0.0,WeatherDisplay:10.37,2013-02-18 09:46:00,
2013-02-18 04:51:00,40.2,33.6,30.34,NE,40,1.4,3.5,77,0.00,,,0.00,0.0,WeatherDisplay:10.37,2013-02-18 09:51:00,
2013-02-18 04:56:00,40.0,33.4,30.34,NE,34,0.5,2.3,77,0.00,,,0.00,0.0,WeatherDisplay:10.37,2013-02-18 09:56:00,
2013-02-18 05:01:00,39.9,33.3,30.34,NE,35,0.0,0.0,77,0.00,,,0.00,0.0,WeatherDisplay:10.37,2013-02-18 10:01:00,
2013-02-18 05:06:00,39.8,33.2,30.34,NE,42,0.4,1.2,77,0.00,,,0.00,0.0,WeatherDisplay:10.37,2013-02-18 10:06:00,
2013-02-18 05:11:00,39.7,33.1,30.34,NE,44,0.1,1.2,77,0.00,,,0.00,0.0,WeatherDisplay:10.37,2013-02-18 10:11:00,
2013-02-18 05:16:00,39.7,33.1,30.34,NE,44,0.0,0.0,77,0.00,,,0.00,0.0,WeatherDisplay:10.37,2013-02-18 10:16:00,
2013-02-18 05:21:00,39.7,32.8,30.34,NE,45,0.1,1.2,76,0.00,,,0.00,0.0,WeatherDisplay:10.37,2013-02-18 10:21:00,
2013-02-18 05:26:00,39.6,33.0,30.34,NE,52,0.0,0.0,77,0.00,,,0.00,0.0,WeatherDisplay:10.37,2013-02-18 10:26:00,
2013-02-18 05:31:00,39.4,32.8,30.34,NE,52,0.0,0.0,77,0.00,,,0.00,0.0,WeatherDisplay:10.37,2013-02-18 10:31:00,
2013-02-18 05:36:00,39.2,32.6,30.35,NE,52,0.0,0.0,77,0.00,,,0.00,0.0,WeatherDisplay:10.37,2013-02-18 10:36:00,
2013-02-18 05:41:00,39.0,32.7,30.35,NE,52,0.0,0.0,78,0.00,,,0.00,0.0,WeatherDisplay:10.37,2013-02-18 10:41:00,
2013-02-18 05:46:00,38.8,32.5,30.35,NE,52,0.0,0.0,78,0.00,,,0.00,0.0,WeatherDisplay:10.37,2013-02-18 10:46:00,
2013-02-18 05:51:00,38.5,32.6,30.35,NE,52,0.0,0.0,79,0.00,,,0.00,0.0,WeatherDisplay:10.37,2013-02-18 10:51:00,
2013-02-18 05:56:00,38.3,32.7,30.35,NE,52,0.0,0.0,80,0.00,,,0.00,0.0,WeatherDisplay:10.37,2013-02-18 10:56:00,
2013-02-18 06:01:00,37.8,32.2,30.35,NE,52,0.0,0.0,80,0.00,,,0.00,0.0,WeatherDisplay:10.37,2013-02-18 11:01:00,
2013-02-18 06:06:00,37.3,32.3,30.35,NE,52,0.0,0.0,82,0.00,,,0.00,0.0,WeatherDisplay:10.37,2013-02-18 11:06:00,
2013-02-18 06:11:00,37.1,32.4,30.35,NE,52,0.0,0.0,83,0.00,,,0.00,0.0,WeatherDisplay:10.37,2013-02-18 11:11:00,
2013-02-18 06:16:00,36.8,32.1,30.36,NE,52,0.0,0.0,83,0.00,,,0.00,0.0,WeatherDisplay:10.37,2013-02-18 11:16:00,
2013-02-18 06:21:00,36.6,32.2,30.36,NE,52,0.0,0.0,84,0.00,,,0.00,0.0,WeatherDisplay:10.37,2013-02-18 11:21:00,
2013-02-18 06:26:00,36.2,31.8,30.36,NE,52,0.0,0.0,84,0.00,,,0.00,0.0,WeatherDisplay:10.37,2013-02-18 11:26:00,
2013-02-18 06:31:00,36.1,32.0,30.36,NE,52,0.0,0.0,85,0.00,,,0.00,0.0,WeatherDisplay:10.37,2013-02-18 11:31:00,
2013-02-18 06:36:00,35.8,31.7,30.36,NE,52,0.0,0.0,85,0.00,,,0.00,0.0,WeatherDisplay:10.37,2013-02-18 11:36:00,
2013-02-18 06:41:00,35.7,31.9,30.36,NE,52,0.0,0.0,86,0.00,,,0.00,0.0,WeatherDisplay:10.37,2013-02-18 11:41:00,
2013-02-18 06:46:00,35.6,32.1,30.36,NE,52,0.0,0.0,87,0.00,,,0.00,0.0,WeatherDisplay:10.37,2013-02-18 11:46:00,
2013-02-18 06:51:00,35.4,31.9,30.36,NE,52,0.0,0.0,87,0.00,,,0.00,0.0,WeatherDisplay:10.37,2013-02-18 11:51:00,
2013-02-18 06:56:00,35.2,32.0,30.36,NE,52,0.0,0.0,88,0.00,,,0.00,0.0,WeatherDisplay:10.37,2013-02-18 11:56:00,
2013-02-18 07:01:00,35.1,31.9,30.36,NE,52,0.0,0.0,88,0.00,,,0.00,0.0,WeatherDisplay:10.37,2013-02-18 12:01:00,
2013-02-18 07:06:00,35.2,32.3,30.36,NE,52,0.0,0.0,89,0.00,,,0.00,5.0,WeatherDisplay:10.37,2013-02-18 12:06:00,
2013-02-18 07:11:00,35.4,32.5,30.36,NE,52,0.0,0.0,89,0.00,,,0.00,9.0,WeatherDisplay:10.37,2013-02-18 12:11:00,
2013-02-18 07:16:00,35.7,33.1,30.36,NE,52,0.0,0.0,90,0.00,,,0.00,12.0,WeatherDisplay:10.37,2013-02-18 12:16:00,
2013-02-18 07:22:00,35.9,33.0,30.36,NE,52,0.0,0.0,89,0.00,,,0.00,16.0,WeatherDisplay:10.37,2013-02-18 12:22:00,
2013-02-18 07:27:00,36.2,33.3,30.36,NE,52,0.0,0.0,89,0.00,,,0.00,19.0,WeatherDisplay:10.37,2013-02-18 12:27:00,
2013-02-18 07:32:00,36.7,33.5,30.36,NE,48,0.0,0.0,88,0.00,,,0.00,21.0,WeatherDisplay:10.37,2013-02-18 12:32:00,
2013-02-18 07:37:00,37.4,34.2,30.36,NE,48,0.0,0.0,88,0.00,,,0.00,25.0,WeatherDisplay:10.37,2013-02-18 12:37:00,
2013-02-18 07:42:00,38.2,34.4,30.36,NE,48,0.0,0.0,86,0.00,,,0.00,33.0,WeatherDisplay:10.37,2013-02-18 12:42:00,
2013-02-18 07:47:00,39.3,34.9,30.36,NE,48,0.0,0.0,84,0.00,,,0.00,79.0,WeatherDisplay:10.37,2013-02-18 12:47:00,
2013-02-18 07:52:00,40.4,35.3,30.36,NE,48,0.0,0.0,82,0.00,,,0.00,102.0,WeatherDisplay:10.37,2013-02-18 12:52:00,
2013-02-18 07:57:00,41.0,35.6,30.36,NE,36,0.4,2.0,81,0.00,,,0.00,120.0,WeatherDisplay:10.37,2013-02-18 12:57:00,
2013-02-18 08:02:00,42.0,35.6,30.36,NE,36,0.4,2.3,78,0.00,,,0.00,135.0,WeatherDisplay:10.37,2013-02-18 13:02:00,
2013-02-18 08:07:00,43.1,35.7,30.36,NNE,32,1.9,3.5,75,0.00,,,0.00,149.0,WeatherDisplay:10.37,2013-02-18 13:07:00,
2013-02-18 08:12:00,44.1,36.0,30.36,NNE,27,3.1,3.5,73,0.00,,,0.00,169.0,WeatherDisplay:10.37,2013-02-18 13:12:00,
2013-02-18 08:17:00,44.6,36.1,30.37,NE,40,2.0,3.5,72,0.00,,,0.00,183.0,WeatherDisplay:10.37,2013-02-18 13:17:00,
2013-02-18 08:22:00,45.0,36.5,30.37,NNE,32,0.5,2.3,72,0.00,,,0.00,207.0,WeatherDisplay:10.37,2013-02-18 13:22:00,
2013-02-18 08:27:00,45.7,36.8,30.37,NE,38,0.9,2.3,71,0.00,,,0.00,227.0,WeatherDisplay:10.37,2013-02-18 13:27:00,
2013-02-18 08:32:00,46.2,36.6,30.38,NNE,24,1.8,3.5,69,0.00,,,0.00,246.0,WeatherDisplay:10.37,2013-02-18 13:32:00,
2013-02-18 08:37:00,46.9,35.7,30.37,ENE,60,1.2,4.6,65,0.00,,,0.00,269.0,WeatherDisplay:10.37,2013-02-18 13:37:00,
2013-02-18 08:42:00,47.7,35.7,30.37,North,11,2.8,5.8,63,0.00,,,0.00,288.0,WeatherDisplay:10.37,2013-02-18 13:42:00,
2013-02-18 08:47:00,48.4,34.7,30.37,ENE,57,2.9,5.8,59,0.00,,,0.00,304.0,WeatherDisplay:10.37,2013-02-18 13:47:00,
2013-02-18 08:52:00,48.7,33.7,30.38,ENE,61,3.6,5.8,56,0.00,,,0.00,329.0,WeatherDisplay:10.37,2013-02-18 13:52:00,
2013-02-18 08:57:00,49.1,32.7,30.38,ESE,109,3.3,8.1,53,0.00,,,0.00,350.0,WeatherDisplay:10.37,2013-02-18 13:57:00,
2013-02-18 09:02:00,49.4,32.0,30.37,NE,49,2.6,5.8,51,0.00,OVC,,0.00,369.0,WeatherDisplay:10.37,2013-02-18 14:02:00,
2013-02-18 09:07:00,49.9,32.0,30.37,ENE,59,3.6,5.0,50,0.00,OVC,,0.00,385.0,WeatherDisplay:10.37,2013-02-18 14:07:00,
2013-02-18 09:12:00,50.3,30.8,30.37,East,94,2.7,5.8,47,0.00,OVC,,0.00,404.0,WeatherDisplay:10.37,2013-02-18 14:12:00,
2013-02-18 09:17:00,50.5,28.8,30.37,NNE,17,2.2,6.9,43,0.00,OVC,,0.00,420.0,WeatherDisplay:10.37,2013-02-18 14:17:00,
2013-02-18 09:22:00,51.0,29.8,30.38,East,91,4.4,9.2,44,0.00,OVC,,0.00,434.0,WeatherDisplay:10.37,2013-02-18 14:22:00,
2013-02-18 09:27:00,51.2,29.4,30.38,ESE,113,4.1,9.2,43,0.00,OVC,,0.00,443.0,WeatherDisplay:10.37,2013-02-18 14:27:00,
2013-02-18 09:32:00,51.7,29.3,30.37,ENE,67,6.0,8.1,42,0.00,OVC,,0.00,462.0,WeatherDisplay:10.37,2013-02-18 14:32:00,
2013-02-18 09:37:00,52.0,29.6,30.38,NE,37,4.9,11.5,42,0.00,OVC,,0.00,480.0,WeatherDisplay:10.37,2013-02-18 14:37:00,
2013-02-18 09:42:00,52.3,29.3,30.37,NNE,23,2.2,9.2,41,0.00,OVC,,0.00,492.0,WeatherDisplay:10.37,2013-02-18 14:42:00,
2013-02-18 09:47:00,52.6,28.9,30.38,NW,322,5.2,6.9,40,0.00,OVC,,0.00,512.0,WeatherDisplay:10.37,2013-02-18 14:47:00,
2013-02-18 09:52:00,53.0,28.7,30.38,NNE,30,4.5,5.8,39,0.00,OVC,,0.00,529.0,WeatherDisplay:10.37,2013-02-18 14:52:00,
2013-02-18 09:57:00,53.2,29.5,30.38,NNE,29,2.8,6.9,40,0.00,OVC,,0.00,522.0,WeatherDisplay:10.37,2013-02-18 14:57:00,
2013-02-18 10:02:00,54.0,28.9,30.38,SE,141,2.6,5.0,38,0.00,OVC,,0.00,543.0,WeatherDisplay:10.37,2013-02-18 15:02:00,
2013-02-18 10:07:00,54.8,28.3,30.38,NE,38,1.6,4.6,36,0.00,OVC,,0.00,548.0,WeatherDisplay:10.37,2013-02-18 15:07:00,
2013-02-18 10:12:00,54.8,29.0,30.38,NE,51,3.6,8.1,37,0.00,OVC,,0.00,571.0,WeatherDisplay:10.37,2013-02-18 15:12:00,
2013-02-18 10:17:00,55.0,29.8,30.38,NNE,22,2.3,4.6,38,0.00,OVC,,0.00,580.0,WeatherDisplay:10.37,2013-02-18 15:17:00,
2013-02-18 10:22:00,55.1,28.6,30.38,ENE,78,2.8,6.9,36,0.00,OVC,,0.00,613.0,WeatherDisplay:10.37,2013-02-18 15:22:00,
2013-02-18 10:27:00,55.5,29.6,30.38,East,101,2.3,5.8,37,0.00,OVC,,0.00,629.0,WeatherDisplay:10.37,2013-02-18 15:27:00,
2013-02-18 10:32:00,56.2,30.2,30.38,ESE,119,2.8,5.8,37,0.00,OVC,,0.00,642.0,WeatherDisplay:10.37,2013-02-18 15:32:00,
2013-02-18 10:38:00,56.7,30.0,30.38,NNW,342,3.1,6.9,36,0.00,OVC,,0.00,652.0,WeatherDisplay:10.37,2013-02-18 15:38:00,
2013-02-18 10:43:00,56.7,30.7,30.38,East,96,6.3,10.4,37,0.00,OVC,,0.00,661.0,WeatherDisplay:10.37,2013-02-18 15:43:00,
2013-02-18 10:48:00,56.6,31.9,30.38,SE,136,3.4,6.9,39,0.00,OVC,,0.00,673.0,WeatherDisplay:10.37,2013-02-18 15:48:00,
2013-02-18 10:53:00,56.9,32.8,30.38,NE,53,4.6,8.1,40,0.00,OVC,,0.00,686.0,WeatherDisplay:10.37,2013-02-18 15:53:00,
2013-02-18 10:58:00,57.8,34.8,30.38,ESE,123,4.4,4.4,42,0.00,OVC,,0.00,694.0,WeatherDisplay:10.37,2013-02-18 15:58:00,
2013-02-18 11:03:00,57.9,34.3,30.38,ESE,107,5.4,5.8,41,0.00,OVC,,0.00,705.0,WeatherDisplay:10.37,2013-02-18 16:03:00,
2013-02-18 11:08:00,57.7,34.1,30.38,NE,42,3.5,8.1,41,0.00,OVC,,0.00,715.0,WeatherDisplay:10.37,2013-02-18 16:08:00,
2013-02-18 11:13:00,57.8,34.8,30.38,SSE,163,5.8,9.2,42,0.00,OVC,,0.00,721.0,WeatherDisplay:10.37,2013-02-18 16:13:00,
2013-02-18 11:18:00,58.6,35.6,30.38,ESE,113,1.7,5.8,42,0.00,OVC,,0.00,729.0,WeatherDisplay:10.37,2013-02-18 16:18:00,
2013-02-18 11:23:00,58.7,35.7,30.37,NNE,13,5.5,6.9,42,0.00,OVC,,0.00,742.0,WeatherDisplay:10.37,2013-02-18 16:23:00,
2013-02-18 11:28:00,59.0,35.9,30.38,ESE,121,3.5,8.1,42,0.00,OVC,,0.00,745.0,WeatherDisplay:10.37,2013-02-18 16:28:00,
2013-02-18 11:33:00,58.7,36.2,30.37,ENE,63,3.6,9.2,43,0.00,OVC,,0.00,756.0,WeatherDisplay:10.37,2013-02-18 16:33:00,
2013-02-18 11:38:00,58.9,36.4,30.37,NE,46,4.1,6.9,43,0.00,OVC,,0.00,761.0,WeatherDisplay:10.37,2013-02-18 16:38:00,
2013-02-18 11:43:00,59.2,36.7,30.36,ENE,76,3.6,10.4,43,0.00,OVC,,0.00,770.0,WeatherDisplay:10.37,2013-02-18 16:43:00,
2013-02-18 11:48:00,59.9,37.9,30.36,NE,50,3.0,6.9,44,0.00,OVC,,0.00,777.0,WeatherDisplay:10.37,2013-02-18 16:48:00,
2013-02-18 11:53:00,60.4,37.2,30.36,North,360,5.8,8.1,42,0.00,OVC,,0.00,782.0,WeatherDisplay:10.37,2013-02-18 16:53:00,
2013-02-18 11:58:00,60.0,37.4,30.36,NE,51,4.0,10.4,43,0.00,OVC,,0.00,782.0,WeatherDisplay:10.37,2013-02-18 16:58:00,
2013-02-18 12:03:00,60.5,37.9,30.36,ESE,106,3.8,8.1,43,0.00,OVC,,0.00,786.0,WeatherDisplay:10.37,2013-02-18 17:03:00,
2013-02-18 12:08:00,60.5,37.9,30.35,ESE,114,3.5,8.0,43,0.00,OVC,,0.00,789.0,WeatherDisplay:10.37,2013-02-18 17:08:00,
2013-02-18 12:13:00,61.0,38.9,30.35,SE,137,2.0,6.0,44,0.00,OVC,,0.00,795.0,WeatherDisplay:10.37,2013-02-18 17:13:00,
2013-02-18 12:18:00,61.3,38.0,30.35,ENE,57,2.9,8.1,42,0.00,OVC,,0.00,798.0,WeatherDisplay:10.37,2013-02-18 17:18:00,
2013-02-18 12:23:00,62.1,39.3,30.34,NNE,32,3.4,9.0,43,0.00,OVC,,0.00,805.0,WeatherDisplay:10.37,2013-02-18 17:23:00,
2013-02-18 12:28:00,61.7,38.4,30.34,East,84,5.1,9.2,42,0.00,OVC,,0.00,802.0,WeatherDisplay:10.37,2013-02-18 17:28:00,
2013-02-18 12:33:00,62.0,39.2,30.33,East,86,2.3,4.6,43,0.00,OVC,,0.00,803.0,WeatherDisplay:10.37,2013-02-18 17:33:00,
2013-02-18 12:38:00,62.5,39.1,30.33,East,89,3.7,5.8,42,0.00,OVC,,0.00,805.0,WeatherDisplay:10.37,2013-02-18 17:38:00,
2013-02-18 12:43:00,62.5,39.7,30.33,ESE,102,4.0,8.1,43,0.00,OVC,,0.00,807.0,WeatherDisplay:10.37,2013-02-18 17:43:00,
2013-02-18 12:48:00,63.3,40.4,30.33,SSE,147,6.4,10.4,43,0.00,OVC,,0.00,802.0,WeatherDisplay:10.37,2013-02-18 17:48:00,
2013-02-18 12:53:00,63.9,42.1,30.32,ENE,77,1.2,3.5,45,0.00,OVC,,0.00,805.0,WeatherDisplay:10.37,2013-02-18 17:53:00,
2013-02-18 12:58:00,63.7,40.8,30.32,ENE,76,2.7,9.2,43,0.00,OVC,,0.00,803.0,WeatherDisplay:10.37,2013-02-18 17:58:00,
2013-02-18 13:03:00,64.1,41.7,30.32,NE,51,2.5,6.9,44,0.00,OVC,,0.00,800.0,WeatherDisplay:10.37,2013-02-18 18:03:00,
2013-02-18 13:08:00,64.3,41.9,30.31,ESE,105,2.9,5.0,44,0.00,OVC,,0.00,800.0,WeatherDisplay:10.37,2013-02-18 18:08:00,
2013-02-18 13:13:00,65.2,42.1,30.31,ESE,103,2.9,8.1,43,0.00,OVC,,0.00,795.0,WeatherDisplay:10.37,2013-02-18 18:13:00,
2013-02-18 13:18:00,65.2,42.7,30.31,SSE,159,4.2,6.9,44,0.00,OVC,,0.00,793.0,WeatherDisplay:10.37,2013-02-18 18:18:00,
2013-02-18 13:23:00,65.4,42.3,30.30,SE,128,6.4,11.5,43,0.00,OVC,,0.00,786.0,WeatherDisplay:10.37,2013-02-18 18:23:00,
2013-02-18 13:28:00,65.3,42.2,30.30,East,90,3.7,5.8,43,0.00,OVC,,0.00,782.0,WeatherDisplay:10.37,2013-02-18 18:28:00,
2013-02-18 13:33:00,65.2,42.7,30.30,SSE,161,5.1,6.9,44,0.00,OVC,,0.00,777.0,WeatherDisplay:10.37,2013-02-18 18:33:00,
2013-02-18 13:38:00,66.0,42.9,30.30,East,80,4.3,8.1,43,0.00,OVC,,0.00,773.0,WeatherDisplay:10.37,2013-02-18 18:38:00,
2013-02-18 13:43:00,66.7,43.5,30.30,ESE,108,3.1,9.0,43,0.00,OVC,,0.00,770.0,WeatherDisplay:10.37,2013-02-18 18:43:00,
2013-02-18 13:48:00,66.4,44.4,30.29,NE,38,3.1,4.6,45,0.00,OVC,,0.00,759.0,WeatherDisplay:10.37,2013-02-18 18:48:00,
2013-02-18 13:54:00,66.9,43.7,30.29,ENE,67,1.7,11.0,43,0.00,OVC,,0.00,756.0,WeatherDisplay:10.37,2013-02-18 18:54:00,
2013-02-18 13:59:00,66.6,44.0,30.29,ENE,75,2.5,6.9,44,0.00,OVC,,0.00,751.0,WeatherDisplay:10.37,2013-02-18 18:59:00,
2013-02-18 14:04:00,67.0,43.8,30.28,NNW,348,3.5,4.6,43,0.00,OVC,,0.00,742.0,WeatherDisplay:10.37,2013-02-18 19:04:00,
2013-02-18 14:09:00,67.6,44.3,30.28,South,171,4.8,10.4,43,0.00,OVC,,0.00,733.0,WeatherDisplay:10.37,2013-02-18 19:09:00,
2013-02-18 14:14:00,67.6,44.3,30.27,South,169,5.7,7.0,43,0.00,OVC,,0.00,719.0,WeatherDisplay:10.37,2013-02-18 19:14:00,
2013-02-18 14:19:00,68.0,44.7,30.28,ESE,109,4.3,9.2,43,0.00,OVC,,0.00,714.0,WeatherDisplay:10.37,2013-02-18 19:19:00,
2013-02-18 14:24:00,67.5,44.2,30.27,ENE,63,4.2,9.2,43,0.00,OVC,,0.00,707.0,WeatherDisplay:10.37,2013-02-18 19:24:00,
2013-02-18 14:29:00,68.0,44.7,30.27,SSE,155,2.2,4.6,43,0.00,OVC,,0.00,698.0,WeatherDisplay:10.37,2013-02-18 19:29:00,
2013-02-18 14:34:00,67.9,44.6,30.27,ENE,72,1.7,5.8,43,0.00,OVC,,0.00,686.0,WeatherDisplay:10.37,2013-02-18 19:34:00,
2013-02-18 14:39:00,68.5,45.1,30.27,NE,39,3.1,4.6,43,0.00,OVC,,0.00,675.0,WeatherDisplay:10.37,2013-02-18 19:39:00,
2013-02-18 14:44:00,68.4,45.0,30.27,SSE,147,3.5,7.0,43,0.00,OVC,,0.00,668.0,WeatherDisplay:10.37,2013-02-18 19:44:00,
2013-02-18 14:49:00,68.6,44.6,30.27,ESE,119,3.7,6.9,42,0.00,OVC,,0.00,656.0,WeatherDisplay:10.37,2013-02-18 19:49:00,
2013-02-18 14:54:00,68.6,44.6,30.26,South,171,3.7,8.1,42,0.00,OVC,,0.00,568.0,WeatherDisplay:10.37,2013-02-18 19:54:00,
2013-02-18 14:59:00,68.6,45.8,30.26,SSE,154,2.4,5.8,44,0.00,OVC,,0.00,649.0,WeatherDisplay:10.37,2013-02-18 19:59:00,
2013-02-18 15:04:00,68.9,44.9,30.26,NE,42,3.5,9.0,42,0.00,OVC,,0.00,654.0,WeatherDisplay:10.37,2013-02-18 20:04:00,
2013-02-18 15:09:00,68.8,45.4,30.26,ESE,119,5.2,11.5,43,0.00,OVC,,0.00,654.0,WeatherDisplay:10.37,2013-02-18 20:09:00,
2013-02-18 15:14:00,68.5,44.5,30.26,SE,139,2.5,8.1,42,0.00,OVC,,0.00,650.0,WeatherDisplay:10.37,2013-02-18 20:14:00,
2013-02-18 15:19:00,68.3,44.9,30.26,SSE,152,1.5,5.0,43,0.00,OVC,,0.00,98.0,WeatherDisplay:10.37,2013-02-18 20:19:00,
2013-02-18 15:24:00,68.8,45.4,30.26,SSE,166,3.6,5.8,43,0.00,OVC,,0.00,504.0,WeatherDisplay:10.37,2013-02-18 20:24:00,
2013-02-18 15:29:00,68.6,45.2,30.26,East,92,2.6,5.0,43,0.00,OVC,,0.00,142.0,WeatherDisplay:10.37,2013-02-18 20:29:00,
2013-02-18 15:34:00,68.3,44.9,30.26,East,97,2.8,5.0,43,0.00,OVC,,0.00,146.0,WeatherDisplay:10.37,2013-02-18 20:34:00,
2013-02-18 15:39:00,69.0,45.6,30.26,South,189,6.2,11.5,43,0.00,OVC,,0.00,564.0,WeatherDisplay:10.37,2013-02-18 20:39:00,
2013-02-18 15:44:00,68.5,45.1,30.26,South,173,3.2,5.0,43,0.00,OVC,,0.00,91.0,WeatherDisplay:10.37,2013-02-18 20:44:00,
2013-02-18 15:49:00,67.8,45.7,30.26,East,101,0.1,2.3,45,0.00,OVC,,0.00,522.0,WeatherDisplay:10.37,2013-02-18 20:49:00,
2013-02-18 15:54:00,68.8,46.0,30.26,SSE,159,2.8,4.6,44,0.00,OVC,,0.00,492.0,WeatherDisplay:10.37,2013-02-18 20:54:00,
2013-02-18 15:59:00,69.6,45.5,30.26,East,94,3.9,4.6,42,0.00,OVC,,0.00,499.0,WeatherDisplay:10.37,2013-02-18 20:59:00,
2013-02-18 16:04:00,69.7,45.6,30.25,ESE,120,3.1,5.8,42,0.00,OVC,,0.00,476.0,WeatherDisplay:10.37,2013-02-18 21:04:00,
2013-02-18 16:09:00,69.0,44.9,30.25,South,172,3.9,8.1,42,0.00,OVC,,0.00,76.0,WeatherDisplay:10.37,2013-02-18 21:09:00,
2013-02-18 16:14:00,68.2,45.4,30.26,SSE,167,1.4,4.6,44,0.00,OVC,,0.00,459.0,WeatherDisplay:10.37,2013-02-18 21:14:00,
2013-02-18 16:19:00,69.3,45.8,30.26,ESE,123,3.6,8.1,43,0.00,OVC,,0.00,424.0,WeatherDisplay:10.37,2013-02-18 21:19:00,
2013-02-18 16:24:00,69.3,45.2,30.26,SSE,163,2.9,8.1,42,0.00,OVC,,0.00,100.0,WeatherDisplay:10.37,2013-02-18 21:24:00,
2013-02-18 16:29:00,68.5,45.7,30.26,South,186,0.9,3.5,44,0.00,OVC,,0.00,385.0,WeatherDisplay:10.37,2013-02-18 21:29:00,
2013-02-18 16:35:00,68.5,45.7,30.26,ESE,114,1.0,3.5,44,0.00,OVC,,0.00,357.0,WeatherDisplay:10.37,2013-02-18 21:35:00,
2013-02-18 16:40:00,68.9,44.9,30.26,ESE,117,2.7,4.6,42,0.00,OVC,,0.00,343.0,WeatherDisplay:10.37,2013-02-18 21:40:00,
2013-02-18 16:45:00,69.0,44.3,30.26,SE,127,4.1,9.2,41,0.00,OVC,,0.00,311.0,WeatherDisplay:10.37,2013-02-18 21:45:00,
2013-02-18 16:50:00,68.8,44.1,30.25,East,94,2.8,6.9,41,0.00,OVC,,0.00,107.0,WeatherDisplay:10.37,2013-02-18 21:50:00,
2013-02-18 16:55:00,68.4,44.4,30.25,East,98,3.0,8.1,42,0.00,OVC,,0.00,272.0,WeatherDisplay:10.37,2013-02-18 21:55:00,
2013-02-18 17:00:00,68.3,43.7,30.25,East,92,2.5,6.9,41,0.00,OVC,,0.00,260.0,WeatherDisplay:10.37,2013-02-18 22:00:00,
2013-02-18 17:05:00,68.4,43.8,30.25,South,175,4.2,6.9,41,0.00,,,0.00,229.0,WeatherDisplay:10.37,2013-02-18 22:05:00,
2013-02-18 17:10:00,68.4,43.8,30.25,NE,55,1.3,4.6,41,0.00,CLR,,0.00,206.0,WeatherDisplay:10.37,2013-02-18 22:10:00,
2013-02-18 17:15:00,68.4,43.8,30.25,East,94,0.9,2.3,41,0.00,CLR,,0.00,186.0,WeatherDisplay:10.37,2013-02-18 22:15:00,
2013-02-18 17:20:00,68.3,44.3,30.25,NE,56,3.5,4.6,42,0.00,CLR,,0.00,171.0,WeatherDisplay:10.37,2013-02-18 22:20:00,
2013-02-18 17:25:00,68.1,44.7,30.25,SE,126,2.0,4.6,43,0.00,CLR,,0.00,146.0,WeatherDisplay:10.37,2013-02-18 22:25:00,
2013-02-18 17:30:00,67.8,44.5,30.25,East,90,1.2,4.6,43,0.00,CLR,,0.00,86.0,WeatherDisplay:10.37,2013-02-18 22:30:00,
2013-02-18 17:35:00,67.7,44.4,30.25,East,94,4.3,5.8,43,0.00,SCT,,0.00,42.0,WeatherDisplay:10.37,2013-02-18 22:35:00,
2013-02-18 17:40:00,67.5,44.2,30.25,SE,128,1.1,3.5,43,0.00,SCT,,0.00,46.0,WeatherDisplay:10.37,2013-02-18 22:40:00,
2013-02-18 17:45:00,67.3,44.6,30.25,ENE,74,0.4,3.5,44,0.00,BKN,,0.00,40.0,WeatherDisplay:10.37,2013-02-18 22:45:00,
2013-02-18 17:50:00,67.1,44.4,30.24,ESE,114,2.8,5.0,44,0.00,BKN,,0.00,37.0,WeatherDisplay:10.37,2013-02-18 22:50:00,
2013-02-18 17:55:00,67.0,44.9,30.24,SSE,165,2.2,3.5,45,0.00,BKN,,0.00,32.0,WeatherDisplay:10.37,2013-02-18 22:55:00,
2013-02-18 18:00:00,66.7,45.3,30.24,ESE,103,0.0,0.0,46,0.00,BKN,,0.00,28.0,WeatherDisplay:10.37,2013-02-18 23:00:00,
2013-02-18 18:05:00,66.5,44.5,30.25,ESE,112,2.4,3.5,45,0.00,BKN,,0.00,26.0,WeatherDisplay:10.37,2013-02-18 23:05:00,
2013-02-18 18:10:00,66.5,45.1,30.25,ENE,60,0.2,1.2,46,0.00,BKN,,0.00,21.0,WeatherDisplay:10.37,2013-02-18 23:10:00,
2013-02-18 18:15:00,66.2,44.8,30.25,ESE,117,0.0,0.0,46,0.00,BKN,,0.00,12.0,WeatherDisplay:10.37,2013-02-18 23:15:00,
2013-02-18 18:20:00,65.8,45.0,30.25,ESE,117,0.0,0.0,47,0.00,,,0.00,7.0,WeatherDisplay:10.37,2013-02-18 23:20:00,
2013-02-18 18:25:00,64.9,46.8,30.25,WNW,286,1.2,3.5,52,0.00,,,0.00,0.0,WeatherDisplay:10.37,2013-02-18 23:25:00,
2013-02-18 18:30:00,64.1,47.6,30.25,WNW,284,0.0,0.0,55,0.00,,,0.00,0.0,WeatherDisplay:10.37,2013-02-18 23:30:00,
2013-02-18 18:35:00,63.3,47.8,30.25,WNW,284,0.0,0.0,57,0.00,,,0.00,0.0,WeatherDisplay:10.37,2013-02-18 23:35:00,
2013-02-18 18:40:00,62.6,48.5,30.25,WNW,284,0.0,0.0,60,0.00,,,0.00,0.0,WeatherDisplay:10.37,2013-02-18 23:40:00,
2013-02-18 18:45:00,62.1,48.5,30.24,SSE,161,0.2,2.0,61,0.00,,,0.00,0.0,WeatherDisplay:10.37,2013-02-18 23:45:00,
2013-02-18 18:50:00,61.8,48.6,30.24,SSW,193,0.3,2.0,62,0.00,,,0.00,0.0,WeatherDisplay:10.37,2013-02-18 23:50:00,
2013-02-18 18:55:00,61.4,48.7,30.24,SSW,194,0.0,0.0,63,0.00,,,0.00,0.0,WeatherDisplay:10.37,2013-02-18 23:55:00,
2013-02-18 19:00:00,60.9,48.6,30.25,SSW,194,0.0,0.0,64,0.00,,,0.00,0.0,WeatherDisplay:10.37,2013-02-19 00:00:00,
2013-02-18 19:05:00,60.6,48.8,30.25,SSW,194,0.0,0.0,65,0.00,,,0.00,0.0,WeatherDisplay:10.37,2013-02-19 00:05:00,
2013-02-18 19:10:00,60.3,48.9,30.25,SSW,194,0.0,0.0,66,0.00,,,0.00,0.0,WeatherDisplay:10.37,2013-02-19 00:10:00,
2013-02-18 19:15:00,59.9,49.3,30.25,SSW,194,0.0,0.0,68,0.00,,,0.00,0.0,WeatherDisplay:10.37,2013-02-19 00:15:00,
2013-02-18 19:20:00,59.4,48.8,30.24,SSW,194,0.0,0.0,68,0.00,,,0.00,0.0,WeatherDisplay:10.37,2013-02-19 00:20:00,
2013-02-18 19:25:00,59.0,48.8,30.25,SSW,194,0.0,0.0,69,0.00,,,0.00,0.0,WeatherDisplay:10.37,2013-02-19 00:25:00,
2013-02-18 19:30:00,58.5,48.7,30.25,SSW,194,0.0,0.0,70,0.00,,,0.00,0.0,WeatherDisplay:10.37,2013-02-19 00:30:00,
2013-02-18 19:35:00,58.1,49.1,30.25,SSW,193,0.0,0.0,72,0.00,,,0.00,0.0,WeatherDisplay:10.37,2013-02-19 00:35:00,
2013-02-18 19:40:00,57.8,49.2,30.25,SSW,194,0.0,0.0,73,0.00,,,0.00,0.0,WeatherDisplay:10.37,2013-02-19 00:40:00,
2013-02-18 19:45:00,57.5,48.9,30.25,SSW,194,0.0,0.0,73,0.00,,,0.00,0.0,WeatherDisplay:10.37,2013-02-19 00:45:00,
2013-02-18 19:50:00,57.2,49.0,30.25,SSW,194,0.0,0.0,74,0.00,,,0.00,0.0,WeatherDisplay:10.37,2013-02-19 00:50:00,
2013-02-18 19:55:00,57.0,49.2,30.26,SSW,194,0.0,0.0,75,0.00,,,0.00,0.0,WeatherDisplay:10.37,2013-02-19 00:55:00,
2013-02-18 20:00:00,56.7,49.2,30.26,SSW,194,0.0,0.0,76,0.00,,,0.00,0.0,WeatherDisplay:10.37,2013-02-19 01:00:00,
2013-02-18 20:05:00,56.6,49.1,30.26,SSW,194,0.0,0.0,76,0.00,,,0.00,0.0,WeatherDisplay:10.37,2013-02-19 01:05:00,
2013-02-18 20:11:00,56.3,49.2,30.26,SSW,194,0.0,0.0,77,0.00,,,0.00,0.0,WeatherDisplay:10.37,2013-02-19 01:11:00,
2013-02-18 20:16:00,56.1,49.0,30.26,SSW,194,0.0,0.0,77,0.00,,,0.00,0.0,WeatherDisplay:10.37,2013-02-19 01:16:00,
2013-02-18 20:21:00,56.1,49.3,30.26,SSW,194,0.0,0.0,78,0.00,,,0.00,0.0,WeatherDisplay:10.37,2013-02-19 01:21:00,
2013-02-18 20:26:00,56.0,49.2,30.26,SSW,194,0.0,0.0,78,0.00,,,0.00,0.0,WeatherDisplay:10.37,2013-02-19 01:26:00,
2013-02-18 20:31:00,55.7,48.9,30.26,SSW,194,0.0,0.0,78,0.00,,,0.00,0.0,WeatherDisplay:10.37,2013-02-19 01:31:00,
2013-02-18 20:36:00,55.6,49.2,30.26,SSW,194,0.0,0.0,79,0.00,,,0.00,0.0,WeatherDisplay:10.37,2013-02-19 01:36:00,
2013-02-18 20:41:00,55.4,49.3,30.26,SE,128,1.7,2.3,80,0.00,,,0.00,0.0,WeatherDisplay:10.37,2013-02-19 01:41:00,
2013-02-18 20:46:00,55.8,49.4,30.26,North,355,0.1,0.0,79,0.00,,,0.00,0.0,WeatherDisplay:10.37,2013-02-19 01:46:00,
2013-02-18 20:52:00,55.8,49.4,30.26,North,355,0.0,0.0,79,0.00,,,0.00,0.0,WeatherDisplay:10.37,2013-02-19 01:52:00,
2013-02-18 20:57:00,55.6,49.2,30.26,North,355,0.0,0.0,79,0.00,,,0.00,0.0,WeatherDisplay:10.37,2013-02-19 01:57:00,
2013-02-18 21:02:00,55.3,49.2,30.26,North,355,0.0,0.0,80,0.00,,,0.00,0.0,WeatherDisplay:10.37,2013-02-19 02:02:00,
2013-02-18 21:07:00,54.9,48.8,30.26,North,355,0.0,0.0,80,0.00,,,0.00,0.0,WeatherDisplay:10.37,2013-02-19 02:07:00,
2013-02-18 21:12:00,54.6,48.9,30.25,North,355,0.0,0.0,81,0.00,,,0.00,0.0,WeatherDisplay:10.37,2013-02-19 02:12:00,
2013-02-18 21:17:00,54.2,48.8,30.25,WNW,293,0.0,0.0,82,0.00,,,0.00,0.0,WeatherDisplay:10.37,2013-02-19 02:17:00,
2013-02-18 21:22:00,53.9,48.9,30.25,WNW,293,0.0,0.0,83,0.00,,,0.00,0.0,WeatherDisplay:10.37,2013-02-19 02:22:00,
2013-02-18 21:27:00,53.6,48.9,30.25,WNW,293,0.0,0.0,84,0.00,,,0.00,0.0,WeatherDisplay:10.37,2013-02-19 02:27:00,
2013-02-18 21:32:00,53.4,48.7,30.25,WNW,293,0.0,0.0,84,0.00,,,0.00,0.0,WeatherDisplay:10.37,2013-02-19 02:32:00,
2013-02-18 21:37:00,53.2,48.8,30.25,WNW,293,0.0,0.0,85,0.00,,,0.00,0.0,WeatherDisplay:10.37,2013-02-19 02:37:00,
2013-02-18 21:42:00,53.0,48.6,30.25,WNW,293,0.0,0.0,85,0.00,,,0.00,0.0,WeatherDisplay:10.37,2013-02-19 02:42:00,
2013-02-18 21:47:00,53.1,48.7,30.25,WNW,293,0.0,0.0,85,0.00,,,0.00,0.0,WeatherDisplay:10.37,2013-02-19 02:47:00,
2013-02-18 21:52:00,53.4,48.7,30.25,SE,140,1.0,5.0,84,0.00,,,0.00,0.0,WeatherDisplay:10.37,2013-02-19 02:52:00,
2013-02-18 21:57:00,54.2,49.1,30.24,ESE,118,0.2,1.2,83,0.00,,,0.00,0.0,WeatherDisplay:10.37,2013-02-19 02:57:00,
2013-02-18 22:02:00,55.2,49.5,30.24,ESE,115,0.8,3.0,81,0.00,,,0.00,0.0,WeatherDisplay:10.37,2013-02-19 03:02:00,
2013-02-18 22:08:00,55.9,49.5,30.25,SSE,161,1.2,3.5,79,0.00,,,0.00,0.0,WeatherDisplay:10.37,2013-02-19 03:08:00,
2013-02-18 22:13:00,56.5,49.4,30.25,SE,142,0.0,2.3,77,0.00,,,0.00,0.0,WeatherDisplay:10.37,2013-02-19 03:13:00,
2013-02-18 22:18:00,56.9,49.1,30.24,ESE,120,0.4,1.2,75,0.00,,,0.00,0.0,WeatherDisplay:10.37,2013-02-19 03:18:00,
2013-02-18 22:23:00,57.5,49.3,30.24,ESE,114,2.1,3.5,74,0.00,,,0.00,0.0,WeatherDisplay:10.37,2013-02-19 03:23:00,
2013-02-18 22:28:00,58.2,49.2,30.25,ESE,121,2.8,2.8,72,0.00,,,0.00,0.0,WeatherDisplay:10.37,2013-02-19 03:28:00,
2013-02-18 22:33:00,58.6,49.2,30.25,ESE,104,1.5,4.6,71,0.00,,,0.00,0.0,WeatherDisplay:10.37,2013-02-19 03:33:00,
2013-02-18 22:38:00,58.8,49.4,30.24,East,99,1.2,5.8,71,0.00,,,0.00,0.0,WeatherDisplay:10.37,2013-02-19 03:38:00,
2013-02-18 22:43:00,58.8,49.4,30.24,ESE,109,0.1,2.3,71,0.00,,,0.00,0.0,WeatherDisplay:10.37,2013-02-19 03:43:00,
2013-02-18 22:48:00,58.7,49.3,30.24,ENE,68,2.7,5.8,71,0.00,,,0.00,0.0,WeatherDisplay:10.37,2013-02-19 03:48:00,
2013-02-18 22:53:00,58.7,49.7,30.24,East,81,1.2,5.8,72,0.00,,,0.00,0.0,WeatherDisplay:10.37,2013-02-19 03:53:00,
2013-02-18 22:59:00,58.4,49.8,30.24,SE,141,0.2,2.3,73,0.00,,,0.00,0.0,WeatherDisplay:10.37,2013-02-19 03:59:00,
2013-02-18 23:04:00,58.1,49.5,30.24,SE,136,0.9,1.2,73,0.00,,,0.00,0.0,WeatherDisplay:10.37,2013-02-19 04:04:00,
2013-02-18 23:09:00,58.1,49.9,30.23,ESE,112,0.5,4.6,74,0.00,,,0.00,0.0,WeatherDisplay:10.37,2013-02-19 04:09:00,
2013-02-18 23:14:00,58.1,49.9,30.23,ESE,110,0.7,2.3,74,0.00,,,0.00,0.0,WeatherDisplay:10.37,2013-02-19 04:14:00,
2013-02-18 23:19:00,58.0,49.8,30.23,SE,126,1.3,3.5,74,0.00,,,0.00,0.0,WeatherDisplay:10.37,2013-02-19 04:19:00,
2013-02-18 23:24:00,58.1,49.9,30.22,SSE,153,2.7,4.6,74,0.00,,,0.00,0.0,WeatherDisplay:10.37,2013-02-19 04:24:00,
2013-02-18 23:29:00,58.3,50.0,30.22,SSE,153,1.9,8.1,74,0.00,,,0.00,0.0,WeatherDisplay:10.37,2013-02-19 04:29:00,
2013-02-18 23:34:00,58.3,50.0,30.23,ESE,121,1.8,3.5,74,0.00,,,0.00,0.0,WeatherDisplay:10.37,2013-02-19 04:34:00,
2013-02-18 23:39:00,58.4,50.1,30.23,SE,135,2.0,4.0,74,0.00,,,0.00,0.0,WeatherDisplay:10.37,2013-02-19 04:39:00,
2013-02-18 23:44:00,58.3,50.0,30.23,ESE,106,2.2,4.6,74,0.00,,,0.00,0.0,WeatherDisplay:10.37,2013-02-19 04:44:00,
2013-02-18 23:49:00,58.0,49.8,30.23,SSE,168,2.9,5.8,74,0.00,,,0.00,0.0,WeatherDisplay:10.37,2013-02-19 04:49:00,
2013-02-18 23:54:00,58.0,50.1,30.23,South,188,1.4,4.6,75,0.00,,,0.00,0.0,WeatherDisplay:10.37,2013-02-19 04:54:00,
2013-02-18 23:59:00,57.9,50.0,30.23,SSE,151,1.0,3.0,75,0.00,,,0.00,0.0,WeatherDisplay:10.37,2013-02-19 04:59:00,